Aérodrome :
LOGIN :

S'inscrire | Disclaimer

   EN    FR    IT 

 










Légende :    VFR   VFR Marginal   IFR   IFR Intensif   IFR Très Intensif
Visi : 
Plafond : 
>= 8 km
>= 3000ft
5 à 8 km
1000 à 3000 ft
1500m à 5 km
500 à 1000 ft
800 à 1500m
200 à 500 ft
< 800m
< 200 ft
Symboles :   Orages  Brouillard  Fortes neiges  Fortes précipitations  Vent > 20 kt
SIGMETs :   Divers  Orages  Givrage  Turbulence  Onde Orograph.  Cendres Volcan.







- Altitude de l'aérodrome : 1197 ft
- Code IATA : SPM


ETAD - Spangdahlem Ab

DERNIER METAR :
  • 240958Z AUTO 26013G22KT 9999 SCT033 SCT190 20/09 A3007 RMK AO2 SLP164 T01960094 TSNO

METARs EXPIRÉS :
  • 240948Z AUTO 24017G21KT 9999 SCT033 19/09 A3006 RMK AO2 SLP161 TSNO
  • 240908Z AUTO 24013G20KT 9999 BKN030 19/09 A3008 RMK AO2 SLP166 TSNO
  • 240858Z AUTO 25013KT 9999 SCT029 SCT034 18/09 A3008 RMK AO2 SLP168 T01780092 58001 TSNO
  • 240848Z AUTO 24013G21KT 9999 BKN030 18/09 A3008 RMK AO2 SLP168 TSNO
  • 240843Z AUTO 23015G19KT 9999 SCT031 17/09 A3008 RMK AO2 SLP168 TSNO
  • 240758Z AUTO 23015KT 9999 OVC030 16/09 A3008 RMK AO2 SLP166 T01640088 TSNO
  • 240738Z AUTO 25017G19KT 9999 OVC030 16/08 A3008 RMK AO2 SLP168 TSNO
  • 240728Z AUTO 28015KT 9999 OVC029 16/08 A3009 RMK AO2 SLP170 TSNO

TAF AMD TAF ETAD
Valide du 24 à 09h jusqu'au 25 à 09h UTC


240947Z 2409/2509 25012G18KT 9999 BKN030 QNH2999INS
BECMG 2418/2419 VRB06KT 9999 BKN050 QNH2998INS
BECMG 2505/2506 24009KT 9999 FEW020 BKN040 QNH2997INS TX24/2415Z TN09/2504Z
Pas de NOTAMs connus pour ce terrain.



MET'MAP, la Météo Aéronautique d'un coup d'oeil ! - Copyright ORBIFLY Décembre 2007 - Disclaimer

ORBIFLY MET'MAP TEAM :

Programmation & Développement : Alexandra Zaïnal
Conception & Développement : Baudouin d'Aumeries
Co-Programmation & Développement : Marc-Olivier Méhu
Soutien technique & logistique : Manuel Goepfert

Contact : metmap@orbifly.com




SOURCES & CREDITS :

   NOAA